METAR Data
IDs: Format: Raw Decoded Include TAF

Data at: 2315 UTC 30 Jun 2022

METAR for:KAQX (Allendale Cnty Arpt, SC, US)
Text:KAQX 302255Z AUTO 00000KT 10SM CLR 26/25 A3013 RMK AO2
Temperature: 26.0°C ( 79°F)
Dewpoint: 25.0°C ( 77°F) [RH = 94%]
Pressure (altimeter):30.13 inches Hg (1020.4 mb)
Winds:calm
Visibility:10 or more sm (16+ km)
Ceiling:at least 12,000 feet AGL
Clouds:sky clear below 12,000 feet AGL
QC Flag:automated observation with no human augmentation

TAF for:KAQX (Allendale Cnty Arpt, SC, US)
Text:No data found